Terminal Aerodrome Forecast
Issued by NWS Upton, NY

Current Version | Previous Version | Text Only | Print | Product List | Glossary On
Versions: 1 2 3 4 5 6 7 8 9 10 11 12 13 14 15 16 17 18 19 20 21 22 23 24 25 26 27 28
000
FTUS41 KOKX 210816 AAA
TAFBDR
TAF AMD
KBDR 210816Z 2108/2206 VRB05KT 2SM -RA BR SCT002 BKN070
     FM211100 23006KT 5SM BR SCT005 BKN025
     FM211400 26010KT P6SM SCT050
     FM211600 28014G24KT P6SM SCT050
     FM212300 26008KT P6SM FEW050
     FM220300 VRB04KT P6SM SKC=

USA.gov is the U.S. government's official web portal to all federal, state and local government web resources and services.